Goshen, Indiana
Current Conditions -  °F | °C
As of 9:12 PM on Monday 22 Dec 2014 (Local Time) from KGSH Reporting Station
Light Rain Light Rain  
Wind Chill: 29°   Ceiling: 3000
Heat Index: 38°   Visibility: 4mi
Dew Point: 35°   Wind: 15mph
Humidity: 89%   Direction: 110°ESE
Pressure: 29.75"   Gusts: NA
Location:  41.59°N, 85.84°W
Report Text: KGSH 230212Z AUTO 11013KT 4SM -RA BR BKN030 BKN036 OVC050 03/02 A2975 RMK AO2 P0001 T00330017
Loading
Personal Weather Stations






























Interactive Weather Map New forecast layout! Learn more

10-Day Weather Forecast

Advertisements
Track Severe Weather on mobile